<?xml version="1.0" encoding="UTF-8" standalone="no" ?>
<gpx xmlns="http://www.topografix.com/GPX/1/1" xmlns:xsi="http://www.w3.org/2001/XMLSchema-instance" xsi:schemaLocation="http://www.topografix.com/GPX/1/1 http://www.topografix.com/GPX/1/1/gpx.xsd" version="1.1" creator="VisuGPX - https://www.visugpx.com">
  <metadata>
    <name>Circuit du 18 Mai 2012</name>
    <desc><![CDATA[Le fameux parcours technique au dessus de Mandelieu]]></desc>
  </metadata>
  <trk>
    <name><![CDATA[ACTIVE LOG: 18 MAI 2012 09:37]]></name>
    <trkseg>
      <trkpt lat="43.55499" lon="6.91895">
        <ele>258.25</ele>
        <time>2012-05-18T07:38:48Z</time>
      </trkpt>
      <trkpt lat="43.55498" lon="6.91887">
        <ele>258.25</ele>
        <time>2012-05-18T07:38:51Z</time>
      </trkpt>
      <trkpt lat="43.55499" lon="6.91864">
        <ele>259.69</ele>
        <time>2012-05-18T07:39:05Z</time>
      </trkpt>
      <trkpt lat="43.55506" lon="6.91858">
        <ele>260.65</ele>
        <time>2012-05-18T07:39:11Z</time>
      </trkpt>
      <trkpt lat="43.55512" lon="6.9185">
        <ele>261.14</ele>
        <time>2012-05-18T07:39:18Z</time>
      </trkpt>
      <trkpt lat="43.5551" lon="6.9184">
        <ele>261.14</ele>
        <time>2012-05-18T07:39:29Z</time>
      </trkpt>
      <trkpt lat="43.55509" lon="6.91831">
        <ele>261.14</ele>
        <time>2012-05-18T07:39:35Z</time>
      </trkpt>
      <trkpt lat="43.55518" lon="6.91778">
        <ele>262.1</ele>
        <time>2012-05-18T07:39:52Z</time>
      </trkpt>
      <trkpt lat="43.55523" lon="6.91729">
        <ele>264.98</ele>
        <time>2012-05-18T07:40:08Z</time>
      </trkpt>
      <trkpt lat="43.55541" lon="6.91706">
        <ele>267.86</ele>
        <time>2012-05-18T07:40:21Z</time>
      </trkpt>
      <trkpt lat="43.55574" lon="6.91673">
        <ele>270.75</ele>
        <time>2012-05-18T07:40:39Z</time>
      </trkpt>
      <trkpt lat="43.55606" lon="6.91663">
        <ele>273.63</ele>
        <time>2012-05-18T07:40:55Z</time>
      </trkpt>
      <trkpt lat="43.55659" lon="6.9167">
        <ele>274.59</ele>
        <time>2012-05-18T07:41:14Z</time>
      </trkpt>
      <trkpt lat="43.55674" lon="6.91639">
        <ele>274.59</ele>
        <time>2012-05-18T07:41:24Z</time>
      </trkpt>
      <trkpt lat="43.55664" lon="6.91582">
        <ele>277.48</ele>
        <time>2012-05-18T07:41:40Z</time>
      </trkpt>
      <trkpt lat="43.55664" lon="6.91549">
        <ele>280.36</ele>
        <time>2012-05-18T07:41:51Z</time>
      </trkpt>
      <trkpt lat="43.55686" lon="6.91526">
        <ele>283.73</ele>
        <time>2012-05-18T07:42:05Z</time>
      </trkpt>
      <trkpt lat="43.55699" lon="6.91497">
        <ele>286.61</ele>
        <time>2012-05-18T07:42:18Z</time>
      </trkpt>
      <trkpt lat="43.55716" lon="6.91471">
        <ele>289.97</ele>
        <time>2012-05-18T07:42:34Z</time>
      </trkpt>
      <trkpt lat="43.55744" lon="6.91453">
        <ele>292.38</ele>
        <time>2012-05-18T07:42:52Z</time>
      </trkpt>
      <trkpt lat="43.55774" lon="6.91438">
        <ele>293.82</ele>
        <time>2012-05-18T07:43:07Z</time>
      </trkpt>
      <trkpt lat="43.55799" lon="6.91403">
        <ele>294.78</ele>
        <time>2012-05-18T07:43:23Z</time>
      </trkpt>
      <trkpt lat="43.55805" lon="6.91392">
        <ele>294.78</ele>
        <time>2012-05-18T07:43:27Z</time>
      </trkpt>
      <trkpt lat="43.55805" lon="6.91373">
        <ele>294.78</ele>
        <time>2012-05-18T07:43:32Z</time>
      </trkpt>
      <trkpt lat="43.55795" lon="6.9136">
        <ele>295.26</ele>
        <time>2012-05-18T07:43:36Z</time>
      </trkpt>
      <trkpt lat="43.55781" lon="6.91326">
        <ele>294.3</ele>
        <time>2012-05-18T07:43:43Z</time>
      </trkpt>
      <trkpt lat="43.55786" lon="6.91299">
        <ele>294.3</ele>
        <time>2012-05-18T07:43:49Z</time>
      </trkpt>
      <trkpt lat="43.55775" lon="6.91288">
        <ele>295.26</ele>
        <time>2012-05-18T07:43:55Z</time>
      </trkpt>
      <trkpt lat="43.55739" lon="6.91273">
        <ele>296.7</ele>
        <time>2012-05-18T07:44:09Z</time>
      </trkpt>
      <trkpt lat="43.55733" lon="6.91229">
        <ele>300.07</ele>
        <time>2012-05-18T07:44:25Z</time>
      </trkpt>
      <trkpt lat="43.55727" lon="6.91198">
        <ele>302.95</ele>
        <time>2012-05-18T07:44:38Z</time>
      </trkpt>
      <trkpt lat="43.55726" lon="6.91161">
        <ele>306.32</ele>
        <time>2012-05-18T07:44:54Z</time>
      </trkpt>
      <trkpt lat="43.55732" lon="6.91118">
        <ele>309.2</ele>
        <time>2012-05-18T07:45:12Z</time>
      </trkpt>
      <trkpt lat="43.55733" lon="6.91083">
        <ele>312.57</ele>
        <time>2012-05-18T07:45:27Z</time>
      </trkpt>
      <trkpt lat="43.55718" lon="6.91067">
        <ele>314.97</ele>
        <time>2012-05-18T07:45:42Z</time>
      </trkpt>
      <trkpt lat="43.55683" lon="6.91078">
        <ele>317.37</ele>
        <time>2012-05-18T07:46:02Z</time>
      </trkpt>
      <trkpt lat="43.55671" lon="6.91061">
        <ele>319.3</ele>
        <time>2012-05-18T07:46:13Z</time>
      </trkpt>
      <trkpt lat="43.55666" lon="6.91037">
        <ele>321.7</ele>
        <time>2012-05-18T07:46:37Z</time>
      </trkpt>
      <trkpt lat="43.55667" lon="6.91039">
        <ele>321.7</ele>
        <time>2012-05-18T07:46:54Z</time>
      </trkpt>
      <trkpt lat="43.55668" lon="6.9104">
        <ele>322.66</ele>
        <time>2012-05-18T07:47:34Z</time>
      </trkpt>
      <trkpt lat="43.55668" lon="6.9104">
        <ele>322.66</ele>
        <time>2012-05-18T07:47:50Z</time>
      </trkpt>
      <trkpt lat="43.55668" lon="6.91038">
        <ele>324.1</ele>
        <time>2012-05-18T07:48:09Z</time>
      </trkpt>
      <trkpt lat="43.55668" lon="6.91034">
        <ele>324.1</ele>
        <time>2012-05-18T07:48:17Z</time>
      </trkpt>
      <trkpt lat="43.55664" lon="6.91015">
        <ele>325.54</ele>
        <time>2012-05-18T07:48:29Z</time>
      </trkpt>
      <trkpt lat="43.55647" lon="6.90972">
        <ele>328.43</ele>
        <time>2012-05-18T07:48:48Z</time>
      </trkpt>
      <trkpt lat="43.5562" lon="6.90947">
        <ele>331.79</ele>
        <time>2012-05-18T07:49:05Z</time>
      </trkpt>
      <trkpt lat="43.55591" lon="6.90933">
        <ele>334.68</ele>
        <time>2012-05-18T07:49:21Z</time>
      </trkpt>
      <trkpt lat="43.55579" lon="6.90876">
        <ele>337.08</ele>
        <time>2012-05-18T07:49:41Z</time>
      </trkpt>
      <trkpt lat="43.55584" lon="6.90842">
        <ele>338.04</ele>
        <time>2012-05-18T07:49:54Z</time>
      </trkpt>
      <trkpt lat="43.55606" lon="6.90818">
        <ele>341.41</ele>
        <time>2012-05-18T07:50:10Z</time>
      </trkpt>
      <trkpt lat="43.5562" lon="6.90801">
        <ele>344.29</ele>
        <time>2012-05-18T07:50:22Z</time>
      </trkpt>
      <trkpt lat="43.55637" lon="6.90784">
        <ele>347.17</ele>
        <time>2012-05-18T07:50:36Z</time>
      </trkpt>
      <trkpt lat="43.55661" lon="6.90772">
        <ele>349.58</ele>
        <time>2012-05-18T07:50:53Z</time>
      </trkpt>
      <trkpt lat="43.55691" lon="6.90766">
        <ele>352.94</ele>
        <time>2012-05-18T07:51:13Z</time>
      </trkpt>
      <trkpt lat="43.55728" lon="6.90767">
        <ele>355.83</ele>
        <time>2012-05-18T07:51:39Z</time>
      </trkpt>
      <trkpt lat="43.55756" lon="6.90775">
        <ele>359.19</ele>
        <time>2012-05-18T07:51:58Z</time>
      </trkpt>
      <trkpt lat="43.55772" lon="6.90784">
        <ele>362.55</ele>
        <time>2012-05-18T07:52:10Z</time>
      </trkpt>
      <trkpt lat="43.55793" lon="6.90791">
        <ele>365.44</ele>
        <time>2012-05-18T07:52:25Z</time>
      </trkpt>
      <trkpt lat="43.5581" lon="6.90801">
        <ele>368.32</ele>
        <time>2012-05-18T07:52:39Z</time>
      </trkpt>
      <trkpt lat="43.55829" lon="6.9081">
        <ele>371.69</ele>
        <time>2012-05-18T07:52:54Z</time>
      </trkpt>
      <trkpt lat="43.55831" lon="6.90812">
        <ele>371.69</ele>
        <time>2012-05-18T07:52:56Z</time>
      </trkpt>
      <trkpt lat="43.55841" lon="6.90844">
        <ele>375.53</ele>
        <time>2012-05-18T07:53:14Z</time>
      </trkpt>
      <trkpt lat="43.55858" lon="6.90864">
        <ele>377.45</ele>
        <time>2012-05-18T07:53:32Z</time>
      </trkpt>
      <trkpt lat="43.55888" lon="6.90869">
        <ele>380.34</ele>
        <time>2012-05-18T07:53:54Z</time>
      </trkpt>
      <trkpt lat="43.55911" lon="6.90889">
        <ele>383.22</ele>
        <time>2012-05-18T07:54:14Z</time>
      </trkpt>
      <trkpt lat="43.55931" lon="6.9091">
        <ele>385.63</ele>
        <time>2012-05-18T07:54:31Z</time>
      </trkpt>
      <trkpt lat="43.55954" lon="6.90926">
        <ele>388.99</ele>
        <time>2012-05-18T07:54:49Z</time>
      </trkpt>
      <trkpt lat="43.55977" lon="6.90934">
        <ele>391.87</ele>
        <time>2012-05-18T07:55:05Z</time>
      </trkpt>
      <trkpt lat="43.56014" lon="6.90939">
        <ele>392.84</ele>
        <time>2012-05-18T07:55:22Z</time>
      </trkpt>
      <trkpt lat="43.56067" lon="6.9095">
        <ele>392.84</ele>
        <time>2012-05-18T07:55:39Z</time>
      </trkpt>
      <trkpt lat="43.56086" lon="6.90947">
        <ele>391.87</ele>
        <time>2012-05-18T07:55:41Z</time>
      </trkpt>
      <trkpt lat="43.56125" lon="6.90965">
        <ele>391.87</ele>
        <time>2012-05-18T07:55:50Z</time>
      </trkpt>
      <trkpt lat="43.56132" lon="6.90973">
        <ele>393.8</ele>
        <time>2012-05-18T07:55:55Z</time>
      </trkpt>
      <trkpt lat="43.56147" lon="6.90988">
        <ele>397.16</ele>
        <time>2012-05-18T07:56:07Z</time>
      </trkpt>
      <trkpt lat="43.56163" lon="6.90999">
        <ele>400.53</ele>
        <time>2012-05-18T07:56:19Z</time>
      </trkpt>
      <trkpt lat="43.56195" lon="6.91009">
        <ele>402.93</ele>
        <time>2012-05-18T07:56:39Z</time>
      </trkpt>
      <trkpt lat="43.56232" lon="6.91014">
        <ele>404.85</ele>
        <time>2012-05-18T07:57:00Z</time>
      </trkpt>
      <trkpt lat="43.56258" lon="6.91019">
        <ele>407.74</ele>
        <time>2012-05-18T07:57:17Z</time>
      </trkpt>
      <trkpt lat="43.56283" lon="6.91022">
        <ele>410.62</ele>
        <time>2012-05-18T07:57:34Z</time>
      </trkpt>
      <trkpt lat="43.56302" lon="6.90985">
        <ele>410.62</ele>
        <time>2012-05-18T07:57:45Z</time>
      </trkpt>
      <trkpt lat="43.56311" lon="6.90966">
        <ele>413.98</ele>
        <time>2012-05-18T07:57:57Z</time>
      </trkpt>
      <trkpt lat="43.56328" lon="6.90947">
        <ele>416.39</ele>
        <time>2012-05-18T07:58:13Z</time>
      </trkpt>
      <trkpt lat="43.56344" lon="6.90946">
        <ele>419.27</ele>
        <time>2012-05-18T07:58:28Z</time>
      </trkpt>
      <trkpt lat="43.56349" lon="6.90943">
        <ele>419.75</ele>
        <time>2012-05-18T07:58:36Z</time>
      </trkpt>
      <trkpt lat="43.56359" lon="6.90952">
        <ele>420.71</ele>
        <time>2012-05-18T07:58:49Z</time>
      </trkpt>
      <trkpt lat="43.56359" lon="6.90952">
        <ele>420.71</ele>
        <time>2012-05-18T07:58:53Z</time>
      </trkpt>
      <trkpt lat="43.56371" lon="6.90935">
        <ele>421.68</ele>
        <time>2012-05-18T07:59:08Z</time>
      </trkpt>
      <trkpt lat="43.56383" lon="6.90895">
        <ele>423.12</ele>
        <time>2012-05-18T07:59:23Z</time>
      </trkpt>
      <trkpt lat="43.56388" lon="6.90815">
        <ele>426</ele>
        <time>2012-05-18T07:59:48Z</time>
      </trkpt>
      <trkpt lat="43.56365" lon="6.90777">
        <ele>428.4</ele>
        <time>2012-05-18T08:00:05Z</time>
      </trkpt>
      <trkpt lat="43.56326" lon="6.90788">
        <ele>429.37</ele>
        <time>2012-05-18T08:00:21Z</time>
      </trkpt>
      <trkpt lat="43.56289" lon="6.9079">
        <ele>430.81</ele>
        <time>2012-05-18T08:00:35Z</time>
      </trkpt>
      <trkpt lat="43.56239" lon="6.90723">
        <ele>432.73</ele>
        <time>2012-05-18T08:01:00Z</time>
      </trkpt>
      <trkpt lat="43.56238" lon="6.90681">
        <ele>434.65</ele>
        <time>2012-05-18T08:01:12Z</time>
      </trkpt>
      <trkpt lat="43.56267" lon="6.90673">
        <ele>436.58</ele>
        <time>2012-05-18T08:01:24Z</time>
      </trkpt>
      <trkpt lat="43.56294" lon="6.9067">
        <ele>437.54</ele>
        <time>2012-05-18T08:01:35Z</time>
      </trkpt>
      <trkpt lat="43.56312" lon="6.90627">
        <ele>438.98</ele>
        <time>2012-05-18T08:01:50Z</time>
      </trkpt>
      <trkpt lat="43.56313" lon="6.90624">
        <ele>438.98</ele>
        <time>2012-05-18T08:01:52Z</time>
      </trkpt>
      <trkpt lat="43.56316" lon="6.90612">
        <ele>438.02</ele>
        <time>2012-05-18T08:01:59Z</time>
      </trkpt>
      <trkpt lat="43.56323" lon="6.90606">
        <ele>437.06</ele>
        <time>2012-05-18T08:02:02Z</time>
      </trkpt>
      <trkpt lat="43.5633" lon="6.90603">
        <ele>436.58</ele>
        <time>2012-05-18T08:02:04Z</time>
      </trkpt>
      <trkpt lat="43.56339" lon="6.90601">
        <ele>435.13</ele>
        <time>2012-05-18T08:02:06Z</time>
      </trkpt>
      <trkpt lat="43.56363" lon="6.90587">
        <ele>433.21</ele>
        <time>2012-05-18T08:02:12Z</time>
      </trkpt>
      <trkpt lat="43.56369" lon="6.90567">
        <ele>431.29</ele>
        <time>2012-05-18T08:02:15Z</time>
      </trkpt>
      <trkpt lat="43.56391" lon="6.90517">
        <ele>428.4</ele>
        <time>2012-05-18T08:02:21Z</time>
      </trkpt>
      <trkpt lat="43.564" lon="6.90497">
        <ele>426.48</ele>
        <time>2012-05-18T08:02:24Z</time>
      </trkpt>
      <trkpt lat="43.56404" lon="6.90452">
        <ele>423.6</ele>
        <time>2012-05-18T08:02:32Z</time>
      </trkpt>
      <trkpt lat="43.56414" lon="6.90435">
        <ele>422.16</ele>
        <time>2012-05-18T08:02:35Z</time>
      </trkpt>
      <trkpt lat="43.56432" lon="6.90407">
        <ele>419.75</ele>
        <time>2012-05-18T08:02:40Z</time>
      </trkpt>
      <trkpt lat="43.5644" lon="6.90379">
        <ele>418.31</ele>
        <time>2012-05-18T08:02:44Z</time>
      </trkpt>
      <trkpt lat="43.56462" lon="6.90333">
        <ele>415.91</ele>
        <time>2012-05-18T08:02:53Z</time>
      </trkpt>
      <trkpt lat="43.56454" lon="6.90312">
        <ele>414.47</ele>
        <time>2012-05-18T08:02:59Z</time>
      </trkpt>
      <trkpt lat="43.56414" lon="6.90289">
        <ele>411.1</ele>
        <time>2012-05-18T08:03:08Z</time>
      </trkpt>
      <trkpt lat="43.56393" lon="6.90266">
        <ele>409.18</ele>
        <time>2012-05-18T08:03:13Z</time>
      </trkpt>
      <trkpt lat="43.56384" lon="6.90258">
        <ele>408.22</ele>
        <time>2012-05-18T08:03:15Z</time>
      </trkpt>
      <trkpt lat="43.56368" lon="6.90231">
        <ele>405.81</ele>
        <time>2012-05-18T08:03:20Z</time>
      </trkpt>
      <trkpt lat="43.5636" lon="6.90199">
        <ele>404.37</ele>
        <time>2012-05-18T08:03:24Z</time>
      </trkpt>
      <trkpt lat="43.56341" lon="6.90176">
        <ele>401.49</ele>
        <time>2012-05-18T08:03:29Z</time>
      </trkpt>
      <trkpt lat="43.56325" lon="6.90172">
        <ele>400.05</ele>
        <time>2012-05-18T08:03:32Z</time>
      </trkpt>
      <trkpt lat="43.56311" lon="6.90179">
        <ele>399.08</ele>
        <time>2012-05-18T08:03:36Z</time>
      </trkpt>
      <trkpt lat="43.56303" lon="6.90188">
        <ele>398.6</ele>
        <time>2012-05-18T08:03:38Z</time>
      </trkpt>
      <trkpt lat="43.56278" lon="6.90195">
        <ele>396.2</ele>
        <time>2012-05-18T08:03:43Z</time>
      </trkpt>
      <trkpt lat="43.56269" lon="6.90187">
        <ele>396.2</ele>
        <time>2012-05-18T08:03:45Z</time>
      </trkpt>
      <trkpt lat="43.56246" lon="6.90183">
        <ele>394.28</ele>
        <time>2012-05-18T08:03:50Z</time>
      </trkpt>
      <trkpt lat="43.56221" lon="6.90172">
        <ele>391.87</ele>
        <time>2012-05-18T08:03:55Z</time>
      </trkpt>
      <trkpt lat="43.5621" lon="6.90157">
        <ele>390.43</ele>
        <time>2012-05-18T08:03:58Z</time>
      </trkpt>
      <trkpt lat="43.56189" lon="6.90148">
        <ele>387.55</ele>
        <time>2012-05-18T08:04:03Z</time>
      </trkpt>
      <trkpt lat="43.56177" lon="6.90152">
        <ele>387.07</ele>
        <time>2012-05-18T08:04:05Z</time>
      </trkpt>
      <trkpt lat="43.56155" lon="6.90145">
        <ele>385.15</ele>
        <time>2012-05-18T08:04:09Z</time>
      </trkpt>
      <trkpt lat="43.56139" lon="6.90137">
        <ele>383.7</ele>
        <time>2012-05-18T08:04:12Z</time>
      </trkpt>
      <trkpt lat="43.56118" lon="6.90129">
        <ele>381.78</ele>
        <time>2012-05-18T08:04:16Z</time>
      </trkpt>
      <trkpt lat="43.56105" lon="6.90118">
        <ele>380.34</ele>
        <time>2012-05-18T08:04:19Z</time>
      </trkpt>
      <trkpt lat="43.56085" lon="6.90105">
        <ele>377.94</ele>
        <time>2012-05-18T08:04:23Z</time>
      </trkpt>
      <trkpt lat="43.56066" lon="6.90106">
        <ele>376.97</ele>
        <time>2012-05-18T08:04:26Z</time>
      </trkpt>
      <trkpt lat="43.56054" lon="6.9011">
        <ele>376.01</ele>
        <time>2012-05-18T08:04:28Z</time>
      </trkpt>
      <trkpt lat="43.56014" lon="6.90096">
        <ele>372.65</ele>
        <time>2012-05-18T08:04:36Z</time>
      </trkpt>
      <trkpt lat="43.55998" lon="6.90075">
        <ele>370.73</ele>
        <time>2012-05-18T08:04:40Z</time>
      </trkpt>
      <trkpt lat="43.55976" lon="6.90057">
        <ele>368.32</ele>
        <time>2012-05-18T08:04:46Z</time>
      </trkpt>
      <trkpt lat="43.55954" lon="6.90034">
        <ele>365.44</ele>
        <time>2012-05-18T08:04:53Z</time>
      </trkpt>
      <trkpt lat="43.55939" lon="6.90003">
        <ele>362.55</ele>
        <time>2012-05-18T08:05:04Z</time>
      </trkpt>
      <trkpt lat="43.55918" lon="6.9001">
        <ele>360.63</ele>
        <time>2012-05-18T08:05:09Z</time>
      </trkpt>
      <trkpt lat="43.55892" lon="6.90042">
        <ele>357.27</ele>
        <time>2012-05-18T08:05:16Z</time>
      </trkpt>
      <trkpt lat="43.55888" lon="6.90047">
        <ele>357.27</ele>
        <time>2012-05-18T08:05:17Z</time>
      </trkpt>
      <trkpt lat="43.55876" lon="6.9009">
        <ele>353.42</ele>
        <time>2012-05-18T08:05:23Z</time>
      </trkpt>
      <trkpt lat="43.55868" lon="6.90115">
        <ele>351.5</ele>
        <time>2012-05-18T08:05:26Z</time>
      </trkpt>
      <trkpt lat="43.55856" lon="6.90141">
        <ele>350.06</ele>
        <time>2012-05-18T08:05:30Z</time>
      </trkpt>
      <trkpt lat="43.55829" lon="6.90151">
        <ele>347.17</ele>
        <time>2012-05-18T08:05:36Z</time>
      </trkpt>
      <trkpt lat="43.55823" lon="6.90149">
        <ele>346.69</ele>
        <time>2012-05-18T08:05:37Z</time>
      </trkpt>
      <trkpt lat="43.55792" lon="6.90129">
        <ele>342.37</ele>
        <time>2012-05-18T08:05:43Z</time>
      </trkpt>
      <trkpt lat="43.55787" lon="6.90126">
        <ele>341.41</ele>
        <time>2012-05-18T08:05:44Z</time>
      </trkpt>
      <trkpt lat="43.55758" lon="6.90112">
        <ele>338.04</ele>
        <time>2012-05-18T08:05:52Z</time>
      </trkpt>
      <trkpt lat="43.55749" lon="6.90124">
        <ele>335.64</ele>
        <time>2012-05-18T08:06:00Z</time>
      </trkpt>
      <trkpt lat="43.55749" lon="6.90122">
        <ele>335.16</ele>
        <time>2012-05-18T08:06:23Z</time>
      </trkpt>
      <trkpt lat="43.55751" lon="6.90123">
        <ele>335.16</ele>
        <time>2012-05-18T08:06:59Z</time>
      </trkpt>
      <trkpt lat="43.55759" lon="6.90124">
        <ele>335.64</ele>
        <time>2012-05-18T08:07:05Z</time>
      </trkpt>
      <trkpt lat="43.5579" lon="6.90141">
        <ele>334.68</ele>
        <time>2012-05-18T08:07:16Z</time>
      </trkpt>
      <trkpt lat="43.55835" lon="6.90178">
        <ele>331.79</ele>
        <time>2012-05-18T08:07:27Z</time>
      </trkpt>
      <trkpt lat="43.55866" lon="6.90174">
        <ele>328.91</ele>
        <time>2012-05-18T08:07:34Z</time>
      </trkpt>
      <trkpt lat="43.55894" lon="6.90126">
        <ele>326.5</ele>
        <time>2012-05-18T08:07:42Z</time>
      </trkpt>
      <trkpt lat="43.55908" lon="6.90102">
        <ele>325.06</ele>
        <time>2012-05-18T08:07:46Z</time>
      </trkpt>
      <trkpt lat="43.55935" lon="6.90108">
        <ele>323.14</ele>
        <time>2012-05-18T08:07:53Z</time>
      </trkpt>
      <trkpt lat="43.55948" lon="6.90157">
        <ele>320.26</ele>
        <time>2012-05-18T08:08:00Z</time>
      </trkpt>
      <trkpt lat="43.55953" lon="6.90172">
        <ele>319.3</ele>
        <time>2012-05-18T08:08:02Z</time>
      </trkpt>
      <trkpt lat="43.5596" lon="6.90199">
        <ele>316.89</ele>
        <time>2012-05-18T08:08:06Z</time>
      </trkpt>
      <trkpt lat="43.5598" lon="6.9024">
        <ele>314.49</ele>
        <time>2012-05-18T08:08:12Z</time>
      </trkpt>
      <trkpt lat="43.5599" lon="6.90247">
        <ele>313.53</ele>
        <time>2012-05-18T08:08:14Z</time>
      </trkpt>
      <trkpt lat="43.56001" lon="6.90253">
        <ele>313.05</ele>
        <time>2012-05-18T08:08:16Z</time>
      </trkpt>
      <trkpt lat="43.56022" lon="6.90259">
        <ele>312.09</ele>
        <time>2012-05-18T08:08:20Z</time>
      </trkpt>
      <trkpt lat="43.56055" lon="6.90247">
        <ele>309.2</ele>
        <time>2012-05-18T08:08:27Z</time>
      </trkpt>
      <trkpt lat="43.56077" lon="6.90291">
        <ele>306.8</ele>
        <time>2012-05-18T08:08:34Z</time>
      </trkpt>
      <trkpt lat="43.56083" lon="6.90292">
        <ele>306.32</ele>
        <time>2012-05-18T08:08:35Z</time>
      </trkpt>
      <trkpt lat="43.56096" lon="6.90292">
        <ele>305.84</ele>
        <time>2012-05-18T08:08:37Z</time>
      </trkpt>
      <trkpt lat="43.56111" lon="6.90299">
        <ele>305.36</ele>
        <time>2012-05-18T08:08:40Z</time>
      </trkpt>
      <trkpt lat="43.56143" lon="6.90317">
        <ele>303.43</ele>
        <time>2012-05-18T08:08:47Z</time>
      </trkpt>
      <trkpt lat="43.56152" lon="6.90347">
        <ele>301.03</ele>
        <time>2012-05-18T08:08:55Z</time>
      </trkpt>
      <trkpt lat="43.56116" lon="6.90378">
        <ele>303.43</ele>
        <time>2012-05-18T08:09:14Z</time>
      </trkpt>
      <trkpt lat="43.56074" lon="6.90395">
        <ele>303.91</ele>
        <time>2012-05-18T08:09:29Z</time>
      </trkpt>
      <trkpt lat="43.56024" lon="6.90438">
        <ele>304.88</ele>
        <time>2012-05-18T08:09:46Z</time>
      </trkpt>
      <trkpt lat="43.55962" lon="6.90464">
        <ele>305.84</ele>
        <time>2012-05-18T08:10:05Z</time>
      </trkpt>
      <trkpt lat="43.55932" lon="6.90512">
        <ele>305.84</ele>
        <time>2012-05-18T08:10:18Z</time>
      </trkpt>
      <trkpt lat="43.55922" lon="6.90559">
        <ele>304.88</ele>
        <time>2012-05-18T08:10:26Z</time>
      </trkpt>
      <trkpt lat="43.55914" lon="6.90581">
        <ele>304.88</ele>
        <time>2012-05-18T08:10:30Z</time>
      </trkpt>
      <trkpt lat="43.559" lon="6.90608">
        <ele>304.88</ele>
        <time>2012-05-18T08:10:35Z</time>
      </trkpt>
      <trkpt lat="43.55896" lon="6.90627">
        <ele>304.39</ele>
        <time>2012-05-18T08:10:38Z</time>
      </trkpt>
      <trkpt lat="43.5588" lon="6.90631">
        <ele>304.88</ele>
        <time>2012-05-18T08:10:44Z</time>
      </trkpt>
      <trkpt lat="43.55877" lon="6.90615">
        <ele>305.36</ele>
        <time>2012-05-18T08:10:47Z</time>
      </trkpt>
      <trkpt lat="43.55882" lon="6.90583">
        <ele>305.36</ele>
        <time>2012-05-18T08:10:53Z</time>
      </trkpt>
      <trkpt lat="43.55859" lon="6.90547">
        <ele>303.91</ele>
        <time>2012-05-18T08:11:01Z</time>
      </trkpt>
      <trkpt lat="43.55822" lon="6.90556">
        <ele>300.55</ele>
        <time>2012-05-18T08:11:08Z</time>
      </trkpt>
      <trkpt lat="43.55813" lon="6.90569">
        <ele>298.63</ele>
        <time>2012-05-18T08:11:10Z</time>
      </trkpt>
      <trkpt lat="43.55778" lon="6.90584">
        <ele>294.78</ele>
        <time>2012-05-18T08:11:15Z</time>
      </trkpt>
      <trkpt lat="43.55766" lon="6.90593">
        <ele>292.86</ele>
        <time>2012-05-18T08:11:17Z</time>
      </trkpt>
      <trkpt lat="43.55741" lon="6.9059">
        <ele>289.97</ele>
        <time>2012-05-18T08:11:22Z</time>
      </trkpt>
      <trkpt lat="43.55729" lon="6.90571">
        <ele>286.61</ele>
        <time>2012-05-18T08:11:25Z</time>
      </trkpt>
      <trkpt lat="43.55705" lon="6.9057">
        <ele>283.25</ele>
        <time>2012-05-18T08:11:29Z</time>
      </trkpt>
      <trkpt lat="43.55687" lon="6.90581">
        <ele>281.32</ele>
        <time>2012-05-18T08:11:32Z</time>
      </trkpt>
      <trkpt lat="43.55672" lon="6.90561">
        <ele>277.96</ele>
        <time>2012-05-18T08:11:36Z</time>
      </trkpt>
      <trkpt lat="43.55659" lon="6.90538">
        <ele>275.07</ele>
        <time>2012-05-18T08:11:39Z</time>
      </trkpt>
      <trkpt lat="43.55652" lon="6.90533">
        <ele>273.63</ele>
        <time>2012-05-18T08:11:40Z</time>
      </trkpt>
      <trkpt lat="43.55639" lon="6.90524">
        <ele>271.71</ele>
        <time>2012-05-18T08:11:42Z</time>
      </trkpt>
      <trkpt lat="43.55625" lon="6.9051">
        <ele>269.31</ele>
        <time>2012-05-18T08:11:45Z</time>
      </trkpt>
      <trkpt lat="43.55606" lon="6.905">
        <ele>264.98</ele>
        <time>2012-05-18T08:11:49Z</time>
      </trkpt>
      <trkpt lat="43.55583" lon="6.90515">
        <ele>262.1</ele>
        <time>2012-05-18T08:11:53Z</time>
      </trkpt>
      <trkpt lat="43.55558" lon="6.90554">
        <ele>257.77</ele>
        <time>2012-05-18T08:12:00Z</time>
      </trkpt>
      <trkpt lat="43.55541" lon="6.90532">
        <ele>255.85</ele>
        <time>2012-05-18T08:12:04Z</time>
      </trkpt>
      <trkpt lat="43.55516" lon="6.90481">
        <ele>250.56</ele>
        <time>2012-05-18T08:12:10Z</time>
      </trkpt>
      <trkpt lat="43.5549" lon="6.90461">
        <ele>247.2</ele>
        <time>2012-05-18T08:12:15Z</time>
      </trkpt>
      <trkpt lat="43.55463" lon="6.90438">
        <ele>243.83</ele>
        <time>2012-05-18T08:12:19Z</time>
      </trkpt>
      <trkpt lat="43.5545" lon="6.90429">
        <ele>241.91</ele>
        <time>2012-05-18T08:12:21Z</time>
      </trkpt>
      <trkpt lat="43.55411" lon="6.90413">
        <ele>239.51</ele>
        <time>2012-05-18T08:12:26Z</time>
      </trkpt>
      <trkpt lat="43.55362" lon="6.90386">
        <ele>239.02</ele>
        <time>2012-05-18T08:12:35Z</time>
      </trkpt>
      <trkpt lat="43.55348" lon="6.90373">
        <ele>239.99</ele>
        <time>2012-05-18T08:12:39Z</time>
      </trkpt>
      <trkpt lat="43.55331" lon="6.9032">
        <ele>242.39</ele>
        <time>2012-05-18T08:12:51Z</time>
      </trkpt>
      <trkpt lat="43.55311" lon="6.90327">
        <ele>242.39</ele>
        <time>2012-05-18T08:12:59Z</time>
      </trkpt>
      <trkpt lat="43.5531" lon="6.90332">
        <ele>242.39</ele>
        <time>2012-05-18T08:13:00Z</time>
      </trkpt>
      <trkpt lat="43.55305" lon="6.90385">
        <ele>243.83</ele>
        <time>2012-05-18T08:13:14Z</time>
      </trkpt>
      <trkpt lat="43.55297" lon="6.90447">
        <ele>245.75</ele>
        <time>2012-05-18T08:13:31Z</time>
      </trkpt>
      <trkpt lat="43.55294" lon="6.90469">
        <ele>246.72</ele>
        <time>2012-05-18T08:13:37Z</time>
      </trkpt>
      <trkpt lat="43.55284" lon="6.90476">
        <ele>247.2</ele>
        <time>2012-05-18T08:13:41Z</time>
      </trkpt>
      <trkpt lat="43.55241" lon="6.90493">
        <ele>247.68</ele>
        <time>2012-05-18T08:13:57Z</time>
      </trkpt>
      <trkpt lat="43.55223" lon="6.90512">
        <ele>251.04</ele>
        <time>2012-05-18T08:14:09Z</time>
      </trkpt>
      <trkpt lat="43.55222" lon="6.90522">
        <ele>252</ele>
        <time>2012-05-18T08:14:14Z</time>
      </trkpt>
      <trkpt lat="43.55241" lon="6.90543">
        <ele>254.89</ele>
        <time>2012-05-18T08:14:29Z</time>
      </trkpt>
      <trkpt lat="43.55257" lon="6.90569">
        <ele>258.25</ele>
        <time>2012-05-18T08:14:46Z</time>
      </trkpt>
      <trkpt lat="43.55257" lon="6.90604">
        <ele>260.65</ele>
        <time>2012-05-18T08:15:04Z</time>
      </trkpt>
      <trkpt lat="43.55241" lon="6.90639">
        <ele>263.54</ele>
        <time>2012-05-18T08:15:24Z</time>
      </trkpt>
      <trkpt lat="43.55227" lon="6.90669">
        <ele>265.46</ele>
        <time>2012-05-18T08:15:41Z</time>
      </trkpt>
      <trkpt lat="43.55201" lon="6.90656">
        <ele>264.98</ele>
        <time>2012-05-18T08:15:53Z</time>
      </trkpt>
      <trkpt lat="43.55178" lon="6.90661">
        <ele>264.5</ele>
        <time>2012-05-18T08:15:58Z</time>
      </trkpt>
      <trkpt lat="43.55139" lon="6.90684">
        <ele>265.94</ele>
        <time>2012-05-18T08:16:12Z</time>
      </trkpt>
      <trkpt lat="43.55132" lon="6.90707">
        <ele>269.31</ele>
        <time>2012-05-18T08:16:25Z</time>
      </trkpt>
      <trkpt lat="43.55117" lon="6.90729">
        <ele>271.23</ele>
        <time>2012-05-18T08:16:40Z</time>
      </trkpt>
      <trkpt lat="43.55093" lon="6.90745">
        <ele>274.11</ele>
        <time>2012-05-18T08:16:58Z</time>
      </trkpt>
      <trkpt lat="43.55069" lon="6.90771">
        <ele>277.48</ele>
        <time>2012-05-18T08:17:19Z</time>
      </trkpt>
      <trkpt lat="43.55055" lon="6.90799">
        <ele>280.36</ele>
        <time>2012-05-18T08:17:37Z</time>
      </trkpt>
      <trkpt lat="43.55032" lon="6.90803">
        <ele>283.25</ele>
        <time>2012-05-18T08:17:54Z</time>
      </trkpt>
      <trkpt lat="43.55019" lon="6.90802">
        <ele>284.69</ele>
        <time>2012-05-18T08:18:04Z</time>
      </trkpt>
      <trkpt lat="43.55019" lon="6.9081">
        <ele>285.17</ele>
        <time>2012-05-18T08:18:09Z</time>
      </trkpt>
      <trkpt lat="43.55042" lon="6.90831">
        <ele>288.53</ele>
        <time>2012-05-18T08:18:28Z</time>
      </trkpt>
      <trkpt lat="43.55066" lon="6.90838">
        <ele>290.94</ele>
        <time>2012-05-18T08:18:47Z</time>
      </trkpt>
      <trkpt lat="43.55092" lon="6.9083">
        <ele>294.3</ele>
        <time>2012-05-18T08:19:06Z</time>
      </trkpt>
      <trkpt lat="43.55123" lon="6.90827">
        <ele>296.7</ele>
        <time>2012-05-18T08:19:27Z</time>
      </trkpt>
      <trkpt lat="43.55148" lon="6.90841">
        <ele>299.59</ele>
        <time>2012-05-18T08:19:46Z</time>
      </trkpt>
      <trkpt lat="43.55172" lon="6.90838">
        <ele>302.47</ele>
        <time>2012-05-18T08:20:03Z</time>
      </trkpt>
      <trkpt lat="43.55198" lon="6.90835">
        <ele>304.88</ele>
        <time>2012-05-18T08:20:22Z</time>
      </trkpt>
      <trkpt lat="43.55223" lon="6.90828">
        <ele>307.28</ele>
        <time>2012-05-18T08:20:40Z</time>
      </trkpt>
      <trkpt lat="43.55267" lon="6.90813">
        <ele>304.88</ele>
        <time>2012-05-18T08:20:49Z</time>
      </trkpt>
      <trkpt lat="43.55282" lon="6.90804">
        <ele>304.39</ele>
        <time>2012-05-18T08:20:52Z</time>
      </trkpt>
      <trkpt lat="43.55304" lon="6.90784">
        <ele>307.76</ele>
        <time>2012-05-18T08:21:02Z</time>
      </trkpt>
      <trkpt lat="43.55323" lon="6.90787">
        <ele>311.12</ele>
        <time>2012-05-18T08:21:16Z</time>
      </trkpt>
      <trkpt lat="43.55328" lon="6.9079">
        <ele>312.09</ele>
        <time>2012-05-18T08:21:20Z</time>
      </trkpt>
      <trkpt lat="43.55345" lon="6.90799">
        <ele>314.97</ele>
        <time>2012-05-18T08:21:34Z</time>
      </trkpt>
      <trkpt lat="43.55349" lon="6.90801">
        <ele>315.45</ele>
        <time>2012-05-18T08:21:38Z</time>
      </trkpt>
      <trkpt lat="43.55378" lon="6.90806">
        <ele>318.33</ele>
        <time>2012-05-18T08:22:01Z</time>
      </trkpt>
      <trkpt lat="43.55404" lon="6.90805">
        <ele>321.22</ele>
        <time>2012-05-18T08:22:21Z</time>
      </trkpt>
      <trkpt lat="43.55428" lon="6.90802">
        <ele>322.66</ele>
        <time>2012-05-18T08:22:40Z</time>
      </trkpt>
      <trkpt lat="43.55447" lon="6.90788">
        <ele>325.54</ele>
        <time>2012-05-18T08:22:58Z</time>
      </trkpt>
      <trkpt lat="43.55473" lon="6.90792">
        <ele>327.95</ele>
        <time>2012-05-18T08:23:18Z</time>
      </trkpt>
      <trkpt lat="43.55502" lon="6.90799">
        <ele>330.35</ele>
        <time>2012-05-18T08:23:39Z</time>
      </trkpt>
      <trkpt lat="43.55507" lon="6.90799">
        <ele>331.31</ele>
        <time>2012-05-18T08:23:43Z</time>
      </trkpt>
      <trkpt lat="43.55531" lon="6.90806">
        <ele>332.75</ele>
        <time>2012-05-18T08:24:01Z</time>
      </trkpt>
      <trkpt lat="43.55561" lon="6.90811">
        <ele>335.16</ele>
        <time>2012-05-18T08:24:22Z</time>
      </trkpt>
      <trkpt lat="43.55582" lon="6.90826">
        <ele>337.08</ele>
        <time>2012-05-18T08:24:39Z</time>
      </trkpt>
      <trkpt lat="43.55603" lon="6.90818">
        <ele>340.44</ele>
        <time>2012-05-18T08:24:56Z</time>
      </trkpt>
      <trkpt lat="43.55618" lon="6.90802">
        <ele>343.81</ele>
        <time>2012-05-18T08:25:10Z</time>
      </trkpt>
      <trkpt lat="43.55636" lon="6.90784">
        <ele>346.69</ele>
        <time>2012-05-18T08:25:26Z</time>
      </trkpt>
      <trkpt lat="43.55658" lon="6.90772">
        <ele>350.06</ele>
        <time>2012-05-18T08:25:43Z</time>
      </trkpt>
      <trkpt lat="43.55691" lon="6.90765">
        <ele>352.94</ele>
        <time>2012-05-18T08:26:07Z</time>
      </trkpt>
      <trkpt lat="43.55723" lon="6.90765">
        <ele>355.83</ele>
        <time>2012-05-18T08:26:29Z</time>
      </trkpt>
      <trkpt lat="43.5575" lon="6.9077">
        <ele>359.19</ele>
        <time>2012-05-18T08:26:48Z</time>
      </trkpt>
      <trkpt lat="43.55768" lon="6.90781">
        <ele>362.07</ele>
        <time>2012-05-18T08:27:02Z</time>
      </trkpt>
      <trkpt lat="43.55787" lon="6.90787">
        <ele>364.96</ele>
        <time>2012-05-18T08:27:17Z</time>
      </trkpt>
      <trkpt lat="43.55801" lon="6.90794">
        <ele>368.32</ele>
        <time>2012-05-18T08:27:29Z</time>
      </trkpt>
      <trkpt lat="43.5582" lon="6.90804">
        <ele>371.21</ele>
        <time>2012-05-18T08:27:46Z</time>
      </trkpt>
      <trkpt lat="43.55835" lon="6.90816">
        <ele>374.09</ele>
        <time>2012-05-18T08:28:01Z</time>
      </trkpt>
      <trkpt lat="43.55843" lon="6.90846">
        <ele>377.45</ele>
        <time>2012-05-18T08:28:20Z</time>
      </trkpt>
      <trkpt lat="43.55859" lon="6.90864">
        <ele>379.38</ele>
        <time>2012-05-18T08:28:39Z</time>
      </trkpt>
      <trkpt lat="43.55885" lon="6.90868">
        <ele>381.78</ele>
        <time>2012-05-18T08:29:00Z</time>
      </trkpt>
      <trkpt lat="43.55909" lon="6.90881">
        <ele>384.66</ele>
        <time>2012-05-18T08:29:21Z</time>
      </trkpt>
      <trkpt lat="43.55924" lon="6.90901">
        <ele>386.59</ele>
        <time>2012-05-18T08:29:38Z</time>
      </trkpt>
      <trkpt lat="43.55943" lon="6.90917">
        <ele>388.99</ele>
        <time>2012-05-18T08:29:56Z</time>
      </trkpt>
      <trkpt lat="43.55965" lon="6.90929">
        <ele>392.36</ele>
        <time>2012-05-18T08:30:16Z</time>
      </trkpt>
      <trkpt lat="43.55988" lon="6.90936">
        <ele>393.8</ele>
        <time>2012-05-18T08:30:33Z</time>
      </trkpt>
      <trkpt lat="43.56042" lon="6.90943">
        <ele>394.28</ele>
        <time>2012-05-18T08:30:52Z</time>
      </trkpt>
      <trkpt lat="43.56074" lon="6.90948">
        <ele>392.36</ele>
        <time>2012-05-18T08:31:00Z</time>
      </trkpt>
      <trkpt lat="43.56122" lon="6.90963">
        <ele>391.87</ele>
        <time>2012-05-18T08:31:08Z</time>
      </trkpt>
      <trkpt lat="43.56136" lon="6.90974">
        <ele>394.76</ele>
        <time>2012-05-18T08:31:18Z</time>
      </trkpt>
      <trkpt lat="43.56151" lon="6.90988">
        <ele>398.12</ele>
        <time>2012-05-18T08:31:33Z</time>
      </trkpt>
      <trkpt lat="43.56163" lon="6.90996">
        <ele>401.01</ele>
        <time>2012-05-18T08:31:46Z</time>
      </trkpt>
      <trkpt lat="43.56175" lon="6.91003">
        <ele>402.45</ele>
        <time>2012-05-18T08:31:56Z</time>
      </trkpt>
      <trkpt lat="43.56199" lon="6.91008">
        <ele>403.41</ele>
        <time>2012-05-18T08:32:14Z</time>
      </trkpt>
      <trkpt lat="43.56237" lon="6.91014">
        <ele>405.33</ele>
        <time>2012-05-18T08:32:36Z</time>
      </trkpt>
      <trkpt lat="43.56265" lon="6.91021">
        <ele>408.22</ele>
        <time>2012-05-18T08:32:56Z</time>
      </trkpt>
      <trkpt lat="43.5629" lon="6.91009">
        <ele>410.62</ele>
        <time>2012-05-18T08:33:14Z</time>
      </trkpt>
      <trkpt lat="43.56303" lon="6.9098">
        <ele>411.58</ele>
        <time>2012-05-18T08:33:25Z</time>
      </trkpt>
      <trkpt lat="43.56315" lon="6.90957">
        <ele>414.47</ele>
        <time>2012-05-18T08:33:40Z</time>
      </trkpt>
      <trkpt lat="43.56335" lon="6.90944">
        <ele>416.87</ele>
        <time>2012-05-18T08:33:58Z</time>
      </trkpt>
      <trkpt lat="43.56343" lon="6.90945">
        <ele>418.79</ele>
        <time>2012-05-18T08:34:13Z</time>
      </trkpt>
      <trkpt lat="43.5635" lon="6.90948">
        <ele>420.23</ele>
        <time>2012-05-18T08:34:27Z</time>
      </trkpt>
      <trkpt lat="43.56348" lon="6.90953">
        <ele>420.71</ele>
        <time>2012-05-18T08:34:48Z</time>
      </trkpt>
      <trkpt lat="43.5635" lon="6.90951">
        <ele>420.23</ele>
        <time>2012-05-18T08:35:17Z</time>
      </trkpt>
      <trkpt lat="43.56349" lon="6.90951">
        <ele>420.23</ele>
        <time>2012-05-18T08:36:33Z</time>
      </trkpt>
      <trkpt lat="43.56349" lon="6.90952">
        <ele>419.75</ele>
        <time>2012-05-18T08:37:05Z</time>
      </trkpt>
      <trkpt lat="43.56356" lon="6.90954">
        <ele>420.23</ele>
        <time>2012-05-18T08:37:20Z</time>
      </trkpt>
      <trkpt lat="43.56355" lon="6.90953">
        <ele>419.75</ele>
        <time>2012-05-18T08:37:31Z</time>
      </trkpt>
      <trkpt lat="43.56373" lon="6.90932">
        <ele>420.71</ele>
        <time>2012-05-18T08:37:48Z</time>
      </trkpt>
      <trkpt lat="43.56381" lon="6.90906">
        <ele>421.68</ele>
        <time>2012-05-18T08:38:02Z</time>
      </trkpt>
      <trkpt lat="43.56384" lon="6.90883">
        <ele>422.64</ele>
        <time>2012-05-18T08:38:14Z</time>
      </trkpt>
      <trkpt lat="43.56387" lon="6.90807">
        <ele>425.52</ele>
        <time>2012-05-18T08:38:38Z</time>
      </trkpt>
      <trkpt lat="43.5636" lon="6.90774">
        <ele>427.44</ele>
        <time>2012-05-18T08:38:53Z</time>
      </trkpt>
      <trkpt lat="43.56321" lon="6.90792">
        <ele>428.4</ele>
        <time>2012-05-18T08:39:08Z</time>
      </trkpt>
      <trkpt lat="43.56281" lon="6.90784">
        <ele>429.37</ele>
        <time>2012-05-18T08:39:21Z</time>
      </trkpt>
      <trkpt lat="43.56232" lon="6.90711">
        <ele>432.73</ele>
        <time>2012-05-18T08:39:45Z</time>
      </trkpt>
      <trkpt lat="43.56245" lon="6.90672">
        <ele>434.17</ele>
        <time>2012-05-18T08:39:56Z</time>
      </trkpt>
      <trkpt lat="43.56287" lon="6.90673">
        <ele>436.1</ele>
        <time>2012-05-18T08:40:12Z</time>
      </trkpt>
      <trkpt lat="43.56311" lon="6.90641">
        <ele>437.54</ele>
        <time>2012-05-18T08:40:24Z</time>
      </trkpt>
      <trkpt lat="43.56314" lon="6.90623">
        <ele>438.02</ele>
        <time>2012-05-18T08:40:31Z</time>
      </trkpt>
      <trkpt lat="43.56315" lon="6.90613">
        <ele>437.06</ele>
        <time>2012-05-18T08:40:37Z</time>
      </trkpt>
      <trkpt lat="43.56322" lon="6.90607">
        <ele>436.1</ele>
        <time>2012-05-18T08:40:40Z</time>
      </trkpt>
      <trkpt lat="43.56343" lon="6.906">
        <ele>434.17</ele>
        <time>2012-05-18T08:40:45Z</time>
      </trkpt>
      <trkpt lat="43.56365" lon="6.90583">
        <ele>432.25</ele>
        <time>2012-05-18T08:40:49Z</time>
      </trkpt>
      <trkpt lat="43.56372" lon="6.90556">
        <ele>430.33</ele>
        <time>2012-05-18T08:40:52Z</time>
      </trkpt>
      <trkpt lat="43.56383" lon="6.90531">
        <ele>428.4</ele>
        <time>2012-05-18T08:40:55Z</time>
      </trkpt>
      <trkpt lat="43.56399" lon="6.90499">
        <ele>425.52</ele>
        <time>2012-05-18T08:40:59Z</time>
      </trkpt>
      <trkpt lat="43.56404" lon="6.90469">
        <ele>423.12</ele>
        <time>2012-05-18T08:41:03Z</time>
      </trkpt>
      <trkpt lat="43.56413" lon="6.90435">
        <ele>421.19</ele>
        <time>2012-05-18T08:41:08Z</time>
      </trkpt>
      <trkpt lat="43.56424" lon="6.90421">
        <ele>420.23</ele>
        <time>2012-05-18T08:41:10Z</time>
      </trkpt>
      <trkpt lat="43.56433" lon="6.90406">
        <ele>418.79</ele>
        <time>2012-05-18T08:41:12Z</time>
      </trkpt>
      <trkpt lat="43.5645" lon="6.90355">
        <ele>415.91</ele>
        <time>2012-05-18T08:41:18Z</time>
      </trkpt>
      <trkpt lat="43.56458" lon="6.90318">
        <ele>413.5</ele>
        <time>2012-05-18T08:41:26Z</time>
      </trkpt>
      <trkpt lat="43.56445" lon="6.90306">
        <ele>412.06</ele>
        <time>2012-05-18T08:41:29Z</time>
      </trkpt>
      <trkpt lat="43.56418" lon="6.90292">
        <ele>409.66</ele>
        <time>2012-05-18T08:41:34Z</time>
      </trkpt>
      <trkpt lat="43.56406" lon="6.90282">
        <ele>409.18</ele>
        <time>2012-05-18T08:41:36Z</time>
      </trkpt>
      <trkpt lat="43.56391" lon="6.90262">
        <ele>407.74</ele>
        <time>2012-05-18T08:41:39Z</time>
      </trkpt>
      <trkpt lat="43.56368" lon="6.90235">
        <ele>405.33</ele>
        <time>2012-05-18T08:41:44Z</time>
      </trkpt>
      <trkpt lat="43.56361" lon="6.90218">
        <ele>404.37</ele>
        <time>2012-05-18T08:41:46Z</time>
      </trkpt>
      <trkpt lat="43.56359" lon="6.90198">
        <ele>402.93</ele>
        <time>2012-05-18T08:41:48Z</time>
      </trkpt>
      <trkpt lat="43.56345" lon="6.90175">
        <ele>400.53</ele>
        <time>2012-05-18T08:41:52Z</time>
      </trkpt>
      <trkpt lat="43.56325" lon="6.90173">
        <ele>399.08</ele>
        <time>2012-05-18T08:41:55Z</time>
      </trkpt>
      <trkpt lat="43.56306" lon="6.90184">
        <ele>397.64</ele>
        <time>2012-05-18T08:42:00Z</time>
      </trkpt>
      <trkpt lat="43.56277" lon="6.9019">
        <ele>394.76</ele>
        <time>2012-05-18T08:42:06Z</time>
      </trkpt>
      <trkpt lat="43.56268" lon="6.90181">
        <ele>394.28</ele>
        <time>2012-05-18T08:42:08Z</time>
      </trkpt>
      <trkpt lat="43.5623" lon="6.9018">
        <ele>391.39</ele>
        <time>2012-05-18T08:42:15Z</time>
      </trkpt>
      <trkpt lat="43.56225" lon="6.90175">
        <ele>390.43</ele>
        <time>2012-05-18T08:42:16Z</time>
      </trkpt>
      <trkpt lat="43.56214" lon="6.90158">
        <ele>389.47</ele>
        <time>2012-05-18T08:42:19Z</time>
      </trkpt>
      <trkpt lat="43.56194" lon="6.90147">
        <ele>387.55</ele>
        <time>2012-05-18T08:42:23Z</time>
      </trkpt>
      <trkpt lat="43.5618" lon="6.9015">
        <ele>386.11</ele>
        <time>2012-05-18T08:42:25Z</time>
      </trkpt>
      <trkpt lat="43.5613" lon="6.90133">
        <ele>381.78</ele>
        <time>2012-05-18T08:42:33Z</time>
      </trkpt>
      <trkpt lat="43.56123" lon="6.90131">
        <ele>381.3</ele>
        <time>2012-05-18T08:42:34Z</time>
      </trkpt>
      <trkpt lat="43.56102" lon="6.90112">
        <ele>378.9</ele>
        <time>2012-05-18T08:42:38Z</time>
      </trkpt>
      <trkpt lat="43.56073" lon="6.90103">
        <ele>376.49</ele>
        <time>2012-05-18T08:42:42Z</time>
      </trkpt>
      <trkpt lat="43.5605" lon="6.90109">
        <ele>374.57</ele>
        <time>2012-05-18T08:42:45Z</time>
      </trkpt>
      <trkpt lat="43.56031" lon="6.90111">
        <ele>373.13</ele>
        <time>2012-05-18T08:42:48Z</time>
      </trkpt>
      <trkpt lat="43.56013" lon="6.90091">
        <ele>369.76</ele>
        <time>2012-05-18T08:42:52Z</time>
      </trkpt>
      <trkpt lat="43.55998" lon="6.90073">
        <ele>367.84</ele>
        <time>2012-05-18T08:42:55Z</time>
      </trkpt>
      <trkpt lat="43.55983" lon="6.90061">
        <ele>366.88</ele>
        <time>2012-05-18T08:42:58Z</time>
      </trkpt>
      <trkpt lat="43.5596" lon="6.90045">
        <ele>364</ele>
        <time>2012-05-18T08:43:03Z</time>
      </trkpt>
      <trkpt lat="43.55953" lon="6.90033">
        <ele>362.55</ele>
        <time>2012-05-18T08:43:06Z</time>
      </trkpt>
      <trkpt lat="43.55953" lon="6.90026">
        <ele>362.55</ele>
        <time>2012-05-18T08:43:07Z</time>
      </trkpt>
      <trkpt lat="43.5595" lon="6.90009">
        <ele>361.59</ele>
        <time>2012-05-18T08:43:11Z</time>
      </trkpt>
      <trkpt lat="43.55922" lon="6.90014">
        <ele>358.23</ele>
        <time>2012-05-18T08:43:19Z</time>
      </trkpt>
      <trkpt lat="43.55898" lon="6.90035">
        <ele>354.86</ele>
        <time>2012-05-18T08:43:24Z</time>
      </trkpt>
      <trkpt lat="43.55889" lon="6.90052">
        <ele>353.42</ele>
        <time>2012-05-18T08:43:27Z</time>
      </trkpt>
      <trkpt lat="43.5587" lon="6.90103">
        <ele>350.54</ele>
        <time>2012-05-18T08:43:32Z</time>
      </trkpt>
      <trkpt lat="43.55851" lon="6.90143">
        <ele>348.13</ele>
        <time>2012-05-18T08:43:37Z</time>
      </trkpt>
      <trkpt lat="43.55826" lon="6.90149">
        <ele>344.29</ele>
        <time>2012-05-18T08:43:42Z</time>
      </trkpt>
      <trkpt lat="43.55796" lon="6.90129">
        <ele>340.92</ele>
        <time>2012-05-18T08:43:47Z</time>
      </trkpt>
      <trkpt lat="43.55789" lon="6.90125">
        <ele>339.96</ele>
        <time>2012-05-18T08:43:48Z</time>
      </trkpt>
      <trkpt lat="43.55755" lon="6.90113">
        <ele>336.12</ele>
        <time>2012-05-18T08:43:55Z</time>
      </trkpt>
      <trkpt lat="43.55752" lon="6.90113">
        <ele>335.16</ele>
        <time>2012-05-18T08:43:56Z</time>
      </trkpt>
      <trkpt lat="43.55754" lon="6.90124">
        <ele>332.75</ele>
        <time>2012-05-18T08:44:01Z</time>
      </trkpt>
      <trkpt lat="43.55759" lon="6.90125">
        <ele>332.75</ele>
        <time>2012-05-18T08:44:03Z</time>
      </trkpt>
      <trkpt lat="43.55774" lon="6.90128">
        <ele>332.27</ele>
        <time>2012-05-18T08:44:07Z</time>
      </trkpt>
      <trkpt lat="43.55791" lon="6.90141">
        <ele>331.79</ele>
        <time>2012-05-18T08:44:11Z</time>
      </trkpt>
      <trkpt lat="43.55799" lon="6.90149">
        <ele>331.31</ele>
        <time>2012-05-18T08:44:13Z</time>
      </trkpt>
      <trkpt lat="43.55832" lon="6.90178">
        <ele>329.39</ele>
        <time>2012-05-18T08:44:20Z</time>
      </trkpt>
      <trkpt lat="43.5586" lon="6.90177">
        <ele>326.5</ele>
        <time>2012-05-18T08:44:25Z</time>
      </trkpt>
      <trkpt lat="43.55887" lon="6.90138">
        <ele>324.1</ele>
        <time>2012-05-18T08:44:31Z</time>
      </trkpt>
      <trkpt lat="43.55907" lon="6.90101">
        <ele>322.18</ele>
        <time>2012-05-18T08:44:36Z</time>
      </trkpt>
      <trkpt lat="43.55926" lon="6.90093">
        <ele>321.22</ele>
        <time>2012-05-18T08:44:40Z</time>
      </trkpt>
      <trkpt lat="43.55944" lon="6.9015">
        <ele>316.89</ele>
        <time>2012-05-18T08:44:47Z</time>
      </trkpt>
      <trkpt lat="43.55946" lon="6.90161">
        <ele>316.89</ele>
        <time>2012-05-18T08:44:48Z</time>
      </trkpt>
      <trkpt lat="43.5595" lon="6.9018">
        <ele>315.45</ele>
        <time>2012-05-18T08:44:50Z</time>
      </trkpt>
      <trkpt lat="43.55959" lon="6.90213">
        <ele>312.57</ele>
        <time>2012-05-18T08:44:54Z</time>
      </trkpt>
      <trkpt lat="43.55979" lon="6.9024">
        <ele>311.12</ele>
        <time>2012-05-18T08:44:58Z</time>
      </trkpt>
      <trkpt lat="43.56019" lon="6.90257">
        <ele>308.72</ele>
        <time>2012-05-18T08:45:04Z</time>
      </trkpt>
      <trkpt lat="43.56054" lon="6.90248">
        <ele>305.84</ele>
        <time>2012-05-18T08:45:11Z</time>
      </trkpt>
      <trkpt lat="43.5606" lon="6.90259">
        <ele>305.36</ele>
        <time>2012-05-18T08:45:13Z</time>
      </trkpt>
      <trkpt lat="43.56088" lon="6.9029">
        <ele>303.43</ele>
        <time>2012-05-18T08:45:20Z</time>
      </trkpt>
      <trkpt lat="43.56125" lon="6.90309">
        <ele>301.51</ele>
        <time>2012-05-18T08:45:27Z</time>
      </trkpt>
      <trkpt lat="43.56144" lon="6.90315">
        <ele>301.03</ele>
        <time>2012-05-18T08:45:31Z</time>
      </trkpt>
      <trkpt lat="43.56153" lon="6.90346">
        <ele>297.67</ele>
        <time>2012-05-18T08:45:38Z</time>
      </trkpt>
      <trkpt lat="43.56118" lon="6.90377">
        <ele>300.07</ele>
        <time>2012-05-18T08:45:51Z</time>
      </trkpt>
      <trkpt lat="43.56073" lon="6.90399">
        <ele>300.55</ele>
        <time>2012-05-18T08:46:06Z</time>
      </trkpt>
      <trkpt lat="43.56067" lon="6.90407">
        <ele>300.55</ele>
        <time>2012-05-18T08:46:08Z</time>
      </trkpt>
      <trkpt lat="43.56019" lon="6.9044">
        <ele>301.03</ele>
        <time>2012-05-18T08:46:22Z</time>
      </trkpt>
      <trkpt lat="43.55964" lon="6.90462">
        <ele>301.99</ele>
        <time>2012-05-18T08:46:38Z</time>
      </trkpt>
      <trkpt lat="43.5594" lon="6.90488">
        <ele>302.47</ele>
        <time>2012-05-18T08:46:45Z</time>
      </trkpt>
      <trkpt lat="43.55925" lon="6.90557">
        <ele>301.51</ele>
        <time>2012-05-18T08:46:56Z</time>
      </trkpt>
      <trkpt lat="43.55907" lon="6.90598">
        <ele>301.03</ele>
        <time>2012-05-18T08:47:03Z</time>
      </trkpt>
      <trkpt lat="43.55888" lon="6.90638">
        <ele>300.55</ele>
        <time>2012-05-18T08:47:11Z</time>
      </trkpt>
      <trkpt lat="43.55877" lon="6.90611">
        <ele>301.03</ele>
        <time>2012-05-18T08:47:16Z</time>
      </trkpt>
      <trkpt lat="43.55883" lon="6.90581">
        <ele>301.03</ele>
        <time>2012-05-18T08:47:22Z</time>
      </trkpt>
      <trkpt lat="43.55871" lon="6.90551">
        <ele>300.07</ele>
        <time>2012-05-18T08:47:28Z</time>
      </trkpt>
      <trkpt lat="43.55861" lon="6.90545">
        <ele>299.59</ele>
        <time>2012-05-18T08:47:30Z</time>
      </trkpt>
      <trkpt lat="43.55824" lon="6.90555">
        <ele>296.7</ele>
        <time>2012-05-18T08:47:37Z</time>
      </trkpt>
      <trkpt lat="43.55787" lon="6.90578">
        <ele>291.42</ele>
        <time>2012-05-18T08:47:43Z</time>
      </trkpt>
      <trkpt lat="43.55779" lon="6.90582">
        <ele>290.46</ele>
        <time>2012-05-18T08:47:44Z</time>
      </trkpt>
      <trkpt lat="43.55766" lon="6.90593">
        <ele>289.49</ele>
        <time>2012-05-18T08:47:46Z</time>
      </trkpt>
      <trkpt lat="43.55745" lon="6.90592">
        <ele>285.65</ele>
        <time>2012-05-18T08:47:50Z</time>
      </trkpt>
      <trkpt lat="43.5574" lon="6.90584">
        <ele>284.69</ele>
        <time>2012-05-18T08:47:51Z</time>
      </trkpt>
      <trkpt lat="43.55731" lon="6.90571">
        <ele>282.77</ele>
        <time>2012-05-18T08:47:53Z</time>
      </trkpt>
      <trkpt lat="43.55708" lon="6.90567">
        <ele>279.4</ele>
        <time>2012-05-18T08:47:57Z</time>
      </trkpt>
      <trkpt lat="43.55701" lon="6.90571">
        <ele>278.44</ele>
        <time>2012-05-18T08:47:58Z</time>
      </trkpt>
      <trkpt lat="43.55673" lon="6.90563">
        <ele>273.63</ele>
        <time>2012-05-18T08:48:04Z</time>
      </trkpt>
      <trkpt lat="43.55658" lon="6.90536">
        <ele>270.27</ele>
        <time>2012-05-18T08:48:07Z</time>
      </trkpt>
      <trkpt lat="43.55651" lon="6.90531">
        <ele>270.27</ele>
        <time>2012-05-18T08:48:08Z</time>
      </trkpt>
      <trkpt lat="43.55637" lon="6.90522">
        <ele>267.86</ele>
        <time>2012-05-18T08:48:10Z</time>
      </trkpt>
      <trkpt lat="43.55618" lon="6.90502">
        <ele>263.06</ele>
        <time>2012-05-18T08:48:14Z</time>
      </trkpt>
      <trkpt lat="43.556" lon="6.90501">
        <ele>260.17</ele>
        <time>2012-05-18T08:48:17Z</time>
      </trkpt>
      <trkpt lat="43.55587" lon="6.9051">
        <ele>259.21</ele>
        <time>2012-05-18T08:48:19Z</time>
      </trkpt>
      <trkpt lat="43.55569" lon="6.90538">
        <ele>255.85</ele>
        <time>2012-05-18T08:48:23Z</time>
      </trkpt>
      <trkpt lat="43.55542" lon="6.90537">
        <ele>251.52</ele>
        <time>2012-05-18T08:48:30Z</time>
      </trkpt>
      <trkpt lat="43.55538" lon="6.90527">
        <ele>251.04</ele>
        <time>2012-05-18T08:48:31Z</time>
      </trkpt>
      <trkpt lat="43.55531" lon="6.90505">
        <ele>249.12</ele>
        <time>2012-05-18T08:48:33Z</time>
      </trkpt>
      <trkpt lat="43.55517" lon="6.90481">
        <ele>246.72</ele>
        <time>2012-05-18T08:48:36Z</time>
      </trkpt>
      <trkpt lat="43.55495" lon="6.90464">
        <ele>242.87</ele>
        <time>2012-05-18T08:48:40Z</time>
      </trkpt>
      <trkpt lat="43.55463" lon="6.90436">
        <ele>239.99</ele>
        <time>2012-05-18T08:48:45Z</time>
      </trkpt>
      <trkpt lat="43.55441" lon="6.90423">
        <ele>237.1</ele>
        <time>2012-05-18T08:48:48Z</time>
      </trkpt>
      <trkpt lat="43.55417" lon="6.90414">
        <ele>234.7</ele>
        <time>2012-05-18T08:48:51Z</time>
      </trkpt>
      <trkpt lat="43.55358" lon="6.90381">
        <ele>234.22</ele>
        <time>2012-05-18T08:49:01Z</time>
      </trkpt>
      <trkpt lat="43.55335" lon="6.90333">
        <ele>237.1</ele>
        <time>2012-05-18T08:49:11Z</time>
      </trkpt>
      <trkpt lat="43.55329" lon="6.9031">
        <ele>238.06</ele>
        <time>2012-05-18T08:49:16Z</time>
      </trkpt>
      <trkpt lat="43.5531" lon="6.90332">
        <ele>237.58</ele>
        <time>2012-05-18T08:49:25Z</time>
      </trkpt>
      <trkpt lat="43.55307" lon="6.90375">
        <ele>238.54</ele>
        <time>2012-05-18T08:49:38Z</time>
      </trkpt>
      <trkpt lat="43.55299" lon="6.90419">
        <ele>240.47</ele>
        <time>2012-05-18T08:49:52Z</time>
      </trkpt>
      <trkpt lat="43.55296" lon="6.90468">
        <ele>241.91</ele>
        <time>2012-05-18T08:50:08Z</time>
      </trkpt>
      <trkpt lat="43.5526" lon="6.90484">
        <ele>242.87</ele>
        <time>2012-05-18T08:50:23Z</time>
      </trkpt>
      <trkpt lat="43.55229" lon="6.90503">
        <ele>244.79</ele>
        <time>2012-05-18T08:50:39Z</time>
      </trkpt>
      <trkpt lat="43.55225" lon="6.9052">
        <ele>247.68</ele>
        <time>2012-05-18T08:50:50Z</time>
      </trkpt>
      <trkpt lat="43.55241" lon="6.90543">
        <ele>251.04</ele>
        <time>2012-05-18T08:51:07Z</time>
      </trkpt>
      <trkpt lat="43.55256" lon="6.90562">
        <ele>253.44</ele>
        <time>2012-05-18T08:51:22Z</time>
      </trkpt>
      <trkpt lat="43.5526" lon="6.90602">
        <ele>256.33</ele>
        <time>2012-05-18T08:51:43Z</time>
      </trkpt>
      <trkpt lat="43.55241" lon="6.90641">
        <ele>259.21</ele>
        <time>2012-05-18T08:52:08Z</time>
      </trkpt>
      <trkpt lat="43.55231" lon="6.90664">
        <ele>260.65</ele>
        <time>2012-05-18T08:52:25Z</time>
      </trkpt>
      <trkpt lat="43.5522" lon="6.90667">
        <ele>261.14</ele>
        <time>2012-05-18T08:52:32Z</time>
      </trkpt>
      <trkpt lat="43.55204" lon="6.90656">
        <ele>261.14</ele>
        <time>2012-05-18T08:52:39Z</time>
      </trkpt>
      <trkpt lat="43.55188" lon="6.90654">
        <ele>260.17</ele>
        <time>2012-05-18T08:52:43Z</time>
      </trkpt>
      <trkpt lat="43.55178" lon="6.9066">
        <ele>259.69</ele>
        <time>2012-05-18T08:52:45Z</time>
      </trkpt>
      <trkpt lat="43.55141" lon="6.90682">
        <ele>261.14</ele>
        <time>2012-05-18T08:52:59Z</time>
      </trkpt>
      <trkpt lat="43.55135" lon="6.90706">
        <ele>264.5</ele>
        <time>2012-05-18T08:53:13Z</time>
      </trkpt>
      <trkpt lat="43.55116" lon="6.90728">
        <ele>266.42</ele>
        <time>2012-05-18T08:53:30Z</time>
      </trkpt>
      <trkpt lat="43.55093" lon="6.90744">
        <ele>269.79</ele>
        <time>2012-05-18T08:53:48Z</time>
      </trkpt>
      <trkpt lat="43.5507" lon="6.9077">
        <ele>273.15</ele>
        <time>2012-05-18T08:54:11Z</time>
      </trkpt>
      <trkpt lat="43.55056" lon="6.90797">
        <ele>276.04</ele>
        <time>2012-05-18T08:54:31Z</time>
      </trkpt>
      <trkpt lat="43.55035" lon="6.90803">
        <ele>278.44</ele>
        <time>2012-05-18T08:54:48Z</time>
      </trkpt>
      <trkpt lat="43.55018" lon="6.90802">
        <ele>280.36</ele>
        <time>2012-05-18T08:55:05Z</time>
      </trkpt>
      <trkpt lat="43.55018" lon="6.90805">
        <ele>280.36</ele>
        <time>2012-05-18T08:55:07Z</time>
      </trkpt>
      <trkpt lat="43.55031" lon="6.9082">
        <ele>282.28</ele>
        <time>2012-05-18T08:55:23Z</time>
      </trkpt>
      <trkpt lat="43.55051" lon="6.90834">
        <ele>285.17</ele>
        <time>2012-05-18T08:55:42Z</time>
      </trkpt>
      <trkpt lat="43.55073" lon="6.90836">
        <ele>288.53</ele>
        <time>2012-05-18T08:55:59Z</time>
      </trkpt>
      <trkpt lat="43.55099" lon="6.90827">
        <ele>290.94</ele>
        <time>2012-05-18T08:56:20Z</time>
      </trkpt>
      <trkpt lat="43.55132" lon="6.90828">
        <ele>293.34</ele>
        <time>2012-05-18T08:56:43Z</time>
      </trkpt>
      <trkpt lat="43.55151" lon="6.9084">
        <ele>296.7</ele>
        <time>2012-05-18T08:57:01Z</time>
      </trkpt>
      <trkpt lat="43.55178" lon="6.90834">
        <ele>299.59</ele>
        <time>2012-05-18T08:57:23Z</time>
      </trkpt>
      <trkpt lat="43.55206" lon="6.90832">
        <ele>302.47</ele>
        <time>2012-05-18T08:57:45Z</time>
      </trkpt>
      <trkpt lat="43.55231" lon="6.90822">
        <ele>302.95</ele>
        <time>2012-05-18T08:58:01Z</time>
      </trkpt>
      <trkpt lat="43.55274" lon="6.90808">
        <ele>301.03</ele>
        <time>2012-05-18T08:58:07Z</time>
      </trkpt>
      <trkpt lat="43.553" lon="6.90786">
        <ele>302.95</ele>
        <time>2012-05-18T08:58:16Z</time>
      </trkpt>
      <trkpt lat="43.55314" lon="6.90782">
        <ele>305.84</ele>
        <time>2012-05-18T08:58:29Z</time>
      </trkpt>
      <trkpt lat="43.55332" lon="6.90791">
        <ele>308.72</ele>
        <time>2012-05-18T08:58:45Z</time>
      </trkpt>
      <trkpt lat="43.55335" lon="6.90791">
        <ele>309.68</ele>
        <time>2012-05-18T08:58:48Z</time>
      </trkpt>
      <trkpt lat="43.55339" lon="6.90796">
        <ele>310.64</ele>
        <time>2012-05-18T08:58:53Z</time>
      </trkpt>
      <trkpt lat="43.55352" lon="6.908">
        <ele>313.05</ele>
        <time>2012-05-18T08:59:05Z</time>
      </trkpt>
      <trkpt lat="43.55356" lon="6.908">
        <ele>313.53</ele>
        <time>2012-05-18T08:59:09Z</time>
      </trkpt>
      <trkpt lat="43.55381" lon="6.90804">
        <ele>315.45</ele>
        <time>2012-05-18T08:59:32Z</time>
      </trkpt>
      <trkpt lat="43.554" lon="6.90805">
        <ele>317.37</ele>
        <time>2012-05-18T08:59:49Z</time>
      </trkpt>
      <trkpt lat="43.55422" lon="6.90802">
        <ele>319.78</ele>
        <time>2012-05-18T09:00:08Z</time>
      </trkpt>
      <trkpt lat="43.5544" lon="6.90791">
        <ele>321.7</ele>
        <time>2012-05-18T09:00:26Z</time>
      </trkpt>
      <trkpt lat="43.5546" lon="6.90788">
        <ele>324.1</ele>
        <time>2012-05-18T09:00:44Z</time>
      </trkpt>
      <trkpt lat="43.55484" lon="6.90793">
        <ele>326.02</ele>
        <time>2012-05-18T09:01:03Z</time>
      </trkpt>
      <trkpt lat="43.55508" lon="6.908">
        <ele>328.43</ele>
        <time>2012-05-18T09:01:25Z</time>
      </trkpt>
      <trkpt lat="43.55527" lon="6.90803">
        <ele>329.87</ele>
        <time>2012-05-18T09:01:41Z</time>
      </trkpt>
      <trkpt lat="43.55535" lon="6.90803">
        <ele>330.35</ele>
        <time>2012-05-18T09:01:49Z</time>
      </trkpt>
      <trkpt lat="43.55545" lon="6.90791">
        <ele>331.79</ele>
        <time>2012-05-18T09:02:00Z</time>
      </trkpt>
      <trkpt lat="43.5555" lon="6.90796">
        <ele>332.75</ele>
        <time>2012-05-18T09:02:07Z</time>
      </trkpt>
      <trkpt lat="43.55548" lon="6.908">
        <ele>332.75</ele>
        <time>2012-05-18T09:02:25Z</time>
      </trkpt>
      <trkpt lat="43.55554" lon="6.908">
        <ele>332.75</ele>
        <time>2012-05-18T09:02:55Z</time>
      </trkpt>
      <trkpt lat="43.55555" lon="6.908">
        <ele>332.27</ele>
        <time>2012-05-18T09:03:15Z</time>
      </trkpt>
      <trkpt lat="43.55565" lon="6.90812">
        <ele>331.79</ele>
        <time>2012-05-18T09:03:26Z</time>
      </trkpt>
      <trkpt lat="43.55576" lon="6.90826">
        <ele>333.71</ele>
        <time>2012-05-18T09:03:41Z</time>
      </trkpt>
      <trkpt lat="43.55579" lon="6.9084">
        <ele>334.2</ele>
        <time>2012-05-18T09:03:50Z</time>
      </trkpt>
      <trkpt lat="43.55579" lon="6.90886">
        <ele>334.2</ele>
        <time>2012-05-18T09:04:05Z</time>
      </trkpt>
      <trkpt lat="43.55586" lon="6.90915">
        <ele>333.71</ele>
        <time>2012-05-18T09:04:11Z</time>
      </trkpt>
      <trkpt lat="43.55602" lon="6.90942">
        <ele>333.23</ele>
        <time>2012-05-18T09:04:17Z</time>
      </trkpt>
      <trkpt lat="43.55613" lon="6.90945">
        <ele>332.75</ele>
        <time>2012-05-18T09:04:19Z</time>
      </trkpt>
      <trkpt lat="43.55643" lon="6.90965">
        <ele>330.83</ele>
        <time>2012-05-18T09:04:23Z</time>
      </trkpt>
      <trkpt lat="43.55661" lon="6.91002">
        <ele>327.95</ele>
        <time>2012-05-18T09:04:27Z</time>
      </trkpt>
      <trkpt lat="43.55663" lon="6.91014">
        <ele>326.99</ele>
        <time>2012-05-18T09:04:28Z</time>
      </trkpt>
      <trkpt lat="43.55668" lon="6.91036">
        <ele>325.54</ele>
        <time>2012-05-18T09:04:30Z</time>
      </trkpt>
      <trkpt lat="43.55686" lon="6.91081">
        <ele>321.7</ele>
        <time>2012-05-18T09:04:35Z</time>
      </trkpt>
      <trkpt lat="43.55693" lon="6.91083">
        <ele>321.7</ele>
        <time>2012-05-18T09:04:36Z</time>
      </trkpt>
      <trkpt lat="43.557" lon="6.91081">
        <ele>321.22</ele>
        <time>2012-05-18T09:04:37Z</time>
      </trkpt>
      <trkpt lat="43.55713" lon="6.91071">
        <ele>320.74</ele>
        <time>2012-05-18T09:04:39Z</time>
      </trkpt>
      <trkpt lat="43.55736" lon="6.91091">
        <ele>317.85</ele>
        <time>2012-05-18T09:04:46Z</time>
      </trkpt>
      <trkpt lat="43.55729" lon="6.91153">
        <ele>313.53</ele>
        <time>2012-05-18T09:04:52Z</time>
      </trkpt>
      <trkpt lat="43.55727" lon="6.91163">
        <ele>312.57</ele>
        <time>2012-05-18T09:04:53Z</time>
      </trkpt>
      <trkpt lat="43.55727" lon="6.91204">
        <ele>310.16</ele>
        <time>2012-05-18T09:04:57Z</time>
      </trkpt>
      <trkpt lat="43.55738" lon="6.9126">
        <ele>305.36</ele>
        <time>2012-05-18T09:05:02Z</time>
      </trkpt>
      <trkpt lat="43.55765" lon="6.9129">
        <ele>301.51</ele>
        <time>2012-05-18T09:05:08Z</time>
      </trkpt>
      <trkpt lat="43.55789" lon="6.91315">
        <ele>299.59</ele>
        <time>2012-05-18T09:05:15Z</time>
      </trkpt>
      <trkpt lat="43.55792" lon="6.91361">
        <ele>298.63</ele>
        <time>2012-05-18T09:05:22Z</time>
      </trkpt>
      <trkpt lat="43.55809" lon="6.91376">
        <ele>299.59</ele>
        <time>2012-05-18T09:05:27Z</time>
      </trkpt>
      <trkpt lat="43.55807" lon="6.91397">
        <ele>299.59</ele>
        <time>2012-05-18T09:05:31Z</time>
      </trkpt>
      <trkpt lat="43.5578" lon="6.91432">
        <ele>299.11</ele>
        <time>2012-05-18T09:05:38Z</time>
      </trkpt>
      <trkpt lat="43.55754" lon="6.91453">
        <ele>298.63</ele>
        <time>2012-05-18T09:05:43Z</time>
      </trkpt>
      <trkpt lat="43.55743" lon="6.91452">
        <ele>298.15</ele>
        <time>2012-05-18T09:05:45Z</time>
      </trkpt>
      <trkpt lat="43.55723" lon="6.9146">
        <ele>297.67</ele>
        <time>2012-05-18T09:05:49Z</time>
      </trkpt>
      <trkpt lat="43.55694" lon="6.91511">
        <ele>294.78</ele>
        <time>2012-05-18T09:05:55Z</time>
      </trkpt>
      <trkpt lat="43.5569" lon="6.9152">
        <ele>293.82</ele>
        <time>2012-05-18T09:05:56Z</time>
      </trkpt>
      <trkpt lat="43.55671" lon="6.91545">
        <ele>289.97</ele>
        <time>2012-05-18T09:06:00Z</time>
      </trkpt>
      <trkpt lat="43.55662" lon="6.91578">
        <ele>287.57</ele>
        <time>2012-05-18T09:06:05Z</time>
      </trkpt>
      <trkpt lat="43.55671" lon="6.91606">
        <ele>285.65</ele>
        <time>2012-05-18T09:06:08Z</time>
      </trkpt>
      <trkpt lat="43.55662" lon="6.91673">
        <ele>281.8</ele>
        <time>2012-05-18T09:06:16Z</time>
      </trkpt>
      <trkpt lat="43.55644" lon="6.91673">
        <ele>281.8</ele>
        <time>2012-05-18T09:06:19Z</time>
      </trkpt>
      <trkpt lat="43.55622" lon="6.9167">
        <ele>282.28</ele>
        <time>2012-05-18T09:06:23Z</time>
      </trkpt>
      <trkpt lat="43.55604" lon="6.91667">
        <ele>282.28</ele>
        <time>2012-05-18T09:06:26Z</time>
      </trkpt>
      <trkpt lat="43.55573" lon="6.91679">
        <ele>281.32</ele>
        <time>2012-05-18T09:06:31Z</time>
      </trkpt>
      <trkpt lat="43.55563" lon="6.91692">
        <ele>280.84</ele>
        <time>2012-05-18T09:06:33Z</time>
      </trkpt>
      <trkpt lat="43.55538" lon="6.91714">
        <ele>278.92</ele>
        <time>2012-05-18T09:06:37Z</time>
      </trkpt>
      <trkpt lat="43.55527" lon="6.91725">
        <ele>278.44</ele>
        <time>2012-05-18T09:06:39Z</time>
      </trkpt>
      <trkpt lat="43.55521" lon="6.9175">
        <ele>276.52</ele>
        <time>2012-05-18T09:06:42Z</time>
      </trkpt>
      <trkpt lat="43.55512" lon="6.91813">
        <ele>273.63</ele>
        <time>2012-05-18T09:06:48Z</time>
      </trkpt>
      <trkpt lat="43.5551" lon="6.91839">
        <ele>272.67</ele>
        <time>2012-05-18T09:06:52Z</time>
      </trkpt>
      <trkpt lat="43.55513" lon="6.91851">
        <ele>273.15</ele>
        <time>2012-05-18T09:06:58Z</time>
      </trkpt>
      <trkpt lat="43.55512" lon="6.91856">
        <ele>273.63</ele>
        <time>2012-05-18T09:07:01Z</time>
      </trkpt>
      <trkpt lat="43.55502" lon="6.91873">
        <ele>272.67</ele>
        <time>2012-05-18T09:07:08Z</time>
      </trkpt>
      <trkpt lat="43.55496" lon="6.91881">
        <ele>271.71</ele>
        <time>2012-05-18T09:07:11Z</time>
      </trkpt>
      <trkpt lat="43.55502" lon="6.91889">
        <ele>271.23</ele>
        <time>2012-05-18T09:07:23Z</time>
      </trkpt>
      <trkpt lat="43.55502" lon="6.91887">
        <ele>271.23</ele>
        <time>2012-05-18T09:08:03Z</time>
      </trkpt>
      <trkpt lat="43.55501" lon="6.91885">
        <ele>271.71</ele>
        <time>2012-05-18T09:08:15Z</time>
      </trkpt>
      <trkpt lat="43.55503" lon="6.91885">
        <ele>270.27</ele>
        <time>2012-05-18T09:08:25Z</time>
      </trkpt>
      <trkpt lat="43.55494" lon="6.91884">
        <ele>269.79</ele>
        <time>2012-05-18T09:08:39Z</time>
      </trkpt>
    </trkseg>
  </trk>
</gpx>